sensor_id;sensor_type;location;lat;lon;timestamp;P1;durP1;ratioP1;P2;durP2;ratioP2
78799;SDS011;68148;55.328;86.106;2024-01-16T00:00:12;1.55;;;1.02;;
78799;SDS011;68148;55.328;86.106;2024-01-16T00:02:39;0.13;;;0.13;;
78799;SDS011;68148;55.328;86.106;2024-01-16T00:05:05;0.32;;;0.32;;
78799;SDS011;68148;55.328;86.106;2024-01-16T00:07:31;0.00;;;0.00;;
78799;SDS011;68148;55.328;86.106;2024-01-16T00:12:46;5.70;;;5.18;;
78799;SDS011;68148;55.328;86.106;2024-01-16T00:15:25;1.35;;;1.08;;
78799;SDS011;68148;55.328;86.106;2024-01-16T00:17:51;0.63;;;0.43;;
78799;SDS011;68148;55.328;86.106;2024-01-16T00:20:17;1.58;;;0.93;;
78799;SDS011;68148;55.328;86.106;2024-01-16T00:22:43;3.55;;;1.35;;
78799;SDS011;68148;55.328;86.106;2024-01-16T00:25:09;1.30;;;1.23;;
78799;SDS011;68148;55.328;86.106;2024-01-16T00:27:35;0.30;;;0.25;;
78799;SDS011;68148;55.328;86.106;2024-01-16T00:30:01;0.68;;;0.68;;
78799;SDS011;68148;55.328;86.106;2024-01-16T00:32:28;0.57;;;0.57;;
78799;SDS011;68148;55.328;86.106;2024-01-16T00:34:55;4.00;;;1.33;;
78799;SDS011;68148;55.328;86.106;2024-01-16T00:37:22;0.00;;;0.00;;
78799;SDS011;68148;55.328;86.106;2024-01-16T00:40:02;1.05;;;1.05;;
78799;SDS011;68148;55.328;86.106;2024-01-16T00:42:35;0.00;;;0.00;;
78799;SDS011;68148;55.328;86.106;2024-01-16T00:45:02;0.10;;;0.10;;
78799;SDS011;68148;55.328;86.106;2024-01-16T00:47:28;0.10;;;0.10;;
78799;SDS011;68148;55.328;86.106;2024-01-16T00:49:54;0.00;;;0.00;;
78799;SDS011;68148;55.328;86.106;2024-01-16T00:52:26;1.15;;;1.08;;
78799;SDS011;68148;55.328;86.106;2024-01-16T00:54:52;0.45;;;0.43;;
78799;SDS011;68148;55.328;86.106;2024-01-16T00:57:18;0.65;;;0.65;;
78799;SDS011;68148;55.328;86.106;2024-01-16T00:59:44;1.45;;;1.27;;
78799;SDS011;68148;55.328;86.106;2024-01-16T01:02:14;0.03;;;0.03;;
78799;SDS011;68148;55.328;86.106;2024-01-16T01:04:41;2.03;;;1.92;;
78799;SDS011;68148;55.328;86.106;2024-01-16T01:07:07;1.98;;;0.88;;
78799;SDS011;68148;55.328;86.106;2024-01-16T01:09:38;1.33;;;1.25;;
78799;SDS011;68148;55.328;86.106;2024-01-16T01:12:04;0.32;;;0.25;;
78799;SDS011;68148;55.328;86.106;2024-01-16T01:14:35;1.85;;;1.75;;
78799;SDS011;68148;55.328;86.106;2024-01-16T01:17:06;0.93;;;0.93;;
78799;SDS011;68148;55.328;86.106;2024-01-16T01:19:33;0.00;;;0.00;;
78799;SDS011;68148;55.328;86.106;2024-01-16T01:21:58;0.77;;;0.77;;
78799;SDS011;68148;55.328;86.106;2024-01-16T01:24:25;0.75;;;0.75;;
78799;SDS011;68148;55.328;86.106;2024-01-16T01:26:51;1.15;;;1.10;;
78799;SDS011;68148;55.328;86.106;2024-01-16T01:29:17;10.90;;;3.65;;
78799;SDS011;68148;55.328;86.106;2024-01-16T01:31:47;5.97;;;4.22;;
78799;SDS011;68148;55.328;86.106;2024-01-16T01:34:13;4.72;;;2.55;;
78799;SDS011;68148;55.328;86.106;2024-01-16T01:36:39;3.22;;;1.85;;
78799;SDS011;68148;55.328;86.106;2024-01-16T01:39:05;14.35;;;2.63;;
78799;SDS011;68148;55.328;86.106;2024-01-16T01:41:32;8.20;;;7.55;;
78799;SDS011;68148;55.328;86.106;2024-01-16T01:43:58;3.40;;;1.85;;
78799;SDS011;68148;55.328;86.106;2024-01-16T01:46:24;4.05;;;3.05;;
78799;SDS011;68148;55.328;86.106;2024-01-16T01:48:50;7.57;;;5.40;;
78799;SDS011;68148;55.328;86.106;2024-01-16T01:51:19;0.32;;;0.32;;
78799;SDS011;68148;55.328;86.106;2024-01-16T01:56:14;1.60;;;0.85;;
78799;SDS011;68148;55.328;86.106;2024-01-16T01:58:47;2.33;;;2.13;;
78799;SDS011;68148;55.328;86.106;2024-01-16T02:01:17;0.00;;;0.00;;
78799;SDS011;68148;55.328;86.106;2024-01-16T02:03:45;0.60;;;0.60;;
78799;SDS011;68148;55.328;86.106;2024-01-16T02:06:13;5.38;;;0.85;;
78799;SDS011;68148;55.328;86.106;2024-01-16T02:08:42;0.00;;;0.00;;
78799;SDS011;68148;55.328;86.106;2024-01-16T02:11:16;0.28;;;0.28;;
78799;SDS011;68148;55.328;86.106;2024-01-16T02:13:58;0.00;;;0.00;;
78799;SDS011;68148;55.328;86.106;2024-01-16T02:16:37;0.30;;;0.25;;
78799;SDS011;68148;55.328;86.106;2024-01-16T02:19:11;2.53;;;0.75;;
78799;SDS011;68148;55.328;86.106;2024-01-16T02:24:25;2.28;;;0.80;;
78799;SDS011;68148;55.328;86.106;2024-01-16T02:26:51;0.90;;;0.30;;
78799;SDS011;68148;55.328;86.106;2024-01-16T02:29:16;4.22;;;0.52;;
78799;SDS011;68148;55.328;86.106;2024-01-16T02:31:44;0.00;;;0.00;;
78799;SDS011;68148;55.328;86.106;2024-01-16T02:34:10;2.67;;;1.20;;
78799;SDS011;68148;55.328;86.106;2024-01-16T02:36:37;0.45;;;0.45;;
78799;SDS011;68148;55.328;86.106;2024-01-16T02:39:02;0.08;;;0.08;;
78799;SDS011;68148;55.328;86.106;2024-01-16T02:41:28;2.50;;;0.38;;
78799;SDS011;68148;55.328;86.106;2024-01-16T02:43:55;1.27;;;0.63;;
78799;SDS011;68148;55.328;86.106;2024-01-16T02:46:21;0.15;;;0.10;;
78799;SDS011;68148;55.328;86.106;2024-01-16T02:48:47;0.00;;;0.00;;
78799;SDS011;68148;55.328;86.106;2024-01-16T02:51:13;3.90;;;1.27;;
78799;SDS011;68148;55.328;86.106;2024-01-16T02:53:47;2.40;;;0.75;;
78799;SDS011;68148;55.328;86.106;2024-01-16T02:56:14;1.67;;;0.70;;
78799;SDS011;68148;55.328;86.106;2024-01-16T02:58:40;0.22;;;0.22;;
78799;SDS011;68148;55.328;86.106;2024-01-16T03:01:06;0.00;;;0.00;;
78799;SDS011;68148;55.328;86.106;2024-01-16T03:03:32;2.22;;;2.05;;
78799;SDS011;68148;55.328;86.106;2024-01-16T03:05:59;0.00;;;0.00;;
78799;SDS011;68148;55.328;86.106;2024-01-16T03:08:50;0.55;;;0.45;;
78799;SDS011;68148;55.328;86.106;2024-01-16T03:11:27;6.13;;;1.60;;
78799;SDS011;68148;55.328;86.106;2024-01-16T03:13:58;0.00;;;0.00;;
78799;SDS011;68148;55.328;86.106;2024-01-16T03:16:27;0.15;;;0.10;;
78799;SDS011;68148;55.328;86.106;2024-01-16T03:18:54;0.20;;;0.20;;
78799;SDS011;68148;55.328;86.106;2024-01-16T03:21:20;15.68;;;1.75;;
78799;SDS011;68148;55.328;86.106;2024-01-16T03:23:46;1.80;;;0.80;;
78799;SDS011;68148;55.328;86.106;2024-01-16T03:26:13;0.10;;;0.10;;
78799;SDS011;68148;55.328;86.106;2024-01-16T03:28:40;0.00;;;0.00;;
78799;SDS011;68148;55.328;86.106;2024-01-16T03:31:18;1.80;;;1.70;;
78799;SDS011;68148;55.328;86.106;2024-01-16T03:33:47;2.45;;;0.73;;
78799;SDS011;68148;55.328;86.106;2024-01-16T03:36:14;0.30;;;0.28;;
78799;SDS011;68148;55.328;86.106;2024-01-16T03:38:43;5.80;;;2.22;;
78799;SDS011;68148;55.328;86.106;2024-01-16T03:41:12;2.80;;;0.85;;
78799;SDS011;68148;55.328;86.106;2024-01-16T03:43:45;0.10;;;0.10;;
78799;SDS011;68148;55.328;86.106;2024-01-16T03:46:11;4.05;;;3.55;;
78799;SDS011;68148;55.328;86.106;2024-01-16T03:48:37;0.30;;;0.25;;
78799;SDS011;68148;55.328;86.106;2024-01-16T03:51:02;1.23;;;1.15;;
78799;SDS011;68148;55.328;86.106;2024-01-16T03:53:29;0.10;;;0.10;;
78799;SDS011;68148;55.328;86.106;2024-01-16T03:55:55;4.90;;;0.95;;
78799;SDS011;68148;55.328;86.106;2024-01-16T03:58:21;5.88;;;5.10;;
78799;SDS011;68148;55.328;86.106;2024-01-16T04:00:49;6.93;;;3.38;;
78799;SDS011;68148;55.328;86.106;2024-01-16T04:03:15;1.38;;;0.75;;
78799;SDS011;68148;55.328;86.106;2024-01-16T04:05:44;2.17;;;0.98;;
78799;SDS011;68148;55.328;86.106;2024-01-16T04:08:10;0.38;;;0.20;;
78799;SDS011;68148;55.328;86.106;2024-01-16T04:10:36;0.32;;;0.22;;
78799;SDS011;68148;55.328;86.106;2024-01-16T04:15:46;3.53;;;3.33;;
78799;SDS011;68148;55.328;86.106;2024-01-16T04:18:12;0.60;;;0.10;;
78799;SDS011;68148;55.328;86.106;2024-01-16T04:20:42;4.68;;;2.40;;
78799;SDS011;68148;55.328;86.106;2024-01-16T04:23:09;0.95;;;0.90;;
78799;SDS011;68148;55.328;86.106;2024-01-16T04:25:41;1.48;;;1.17;;
78799;SDS011;68148;55.328;86.106;2024-01-16T04:28:09;2.42;;;2.30;;
78799;SDS011;68148;55.328;86.106;2024-01-16T04:30:38;0.20;;;0.17;;
78799;SDS011;68148;55.328;86.106;2024-01-16T04:33:06;5.93;;;3.03;;
78799;SDS011;68148;55.328;86.106;2024-01-16T04:35:43;0.85;;;0.55;;
78799;SDS011;68148;55.328;86.106;2024-01-16T04:38:10;2.50;;;0.77;;
78799;SDS011;68148;55.328;86.106;2024-01-16T04:40:36;1.27;;;0.70;;
78799;SDS011;68148;55.328;86.106;2024-01-16T04:43:02;1.80;;;0.60;;
78799;SDS011;68148;55.328;86.106;2024-01-16T04:45:28;4.80;;;2.42;;
78799;SDS011;68148;55.328;86.106;2024-01-16T04:47:55;0.65;;;0.40;;
78799;SDS011;68148;55.328;86.106;2024-01-16T04:50:25;1.23;;;1.13;;
78799;SDS011;68148;55.328;86.106;2024-01-16T04:53:14;10.77;;;9.23;;
78799;SDS011;68148;55.328;86.106;2024-01-16T04:55:40;4.32;;;2.00;;
78799;SDS011;68148;55.328;86.106;2024-01-16T04:58:06;2.50;;;2.30;;
78799;SDS011;68148;55.328;86.106;2024-01-16T05:00:32;25.95;;;10.40;;
78799;SDS011;68148;55.328;86.106;2024-01-16T05:02:58;5.60;;;2.00;;
78799;SDS011;68148;55.328;86.106;2024-01-16T05:05:48;3.20;;;1.85;;
78799;SDS011;68148;55.328;86.106;2024-01-16T05:08:17;1.33;;;1.17;;
78799;SDS011;68148;55.328;86.106;2024-01-16T05:10:43;4.97;;;1.23;;
78799;SDS011;68148;55.328;86.106;2024-01-16T05:13:10;2.30;;;1.63;;
78799;SDS011;68148;55.328;86.106;2024-01-16T05:15:41;1.25;;;0.68;;
78799;SDS011;68148;55.328;86.106;2024-01-16T05:18:28;0.00;;;0.00;;
78799;SDS011;68148;55.328;86.106;2024-01-16T05:20:58;1.67;;;1.52;;
78799;SDS011;68148;55.328;86.106;2024-01-16T05:23:28;0.90;;;0.70;;
78799;SDS011;68148;55.328;86.106;2024-01-16T05:25:54;6.03;;;1.05;;
78799;SDS011;68148;55.328;86.106;2024-01-16T05:28:22;0.68;;;0.68;;
78799;SDS011;68148;55.328;86.106;2024-01-16T05:30:49;3.90;;;1.23;;
78799;SDS011;68148;55.328;86.106;2024-01-16T05:33:15;2.47;;;1.52;;
78799;SDS011;68148;55.328;86.106;2024-01-16T05:35:41;1.75;;;1.45;;
78799;SDS011;68148;55.328;86.106;2024-01-16T05:38:07;2.65;;;0.60;;
78799;SDS011;68148;55.328;86.106;2024-01-16T05:40:32;0.00;;;0.00;;
78799;SDS011;68148;55.328;86.106;2024-01-16T05:43:01;0.40;;;0.40;;
78799;SDS011;68148;55.328;86.106;2024-01-16T05:45:27;0.75;;;0.52;;
78799;SDS011;68148;55.328;86.106;2024-01-16T05:47:54;0.85;;;0.65;;
78799;SDS011;68148;55.328;86.106;2024-01-16T05:50:23;3.83;;;1.80;;
78799;SDS011;68148;55.328;86.106;2024-01-16T05:52:51;3.50;;;2.60;;
78799;SDS011;68148;55.328;86.106;2024-01-16T05:55:20;1.13;;;1.05;;
78799;SDS011;68148;55.328;86.106;2024-01-16T05:57:48;0.98;;;0.10;;
78799;SDS011;68148;55.328;86.106;2024-01-16T06:00:16;0.63;;;0.40;;
78799;SDS011;68148;55.328;86.106;2024-01-16T06:02:44;2.10;;;1.10;;
78799;SDS011;68148;55.328;86.106;2024-01-16T06:05:10;0.52;;;0.52;;
78799;SDS011;68148;55.328;86.106;2024-01-16T06:07:36;2.05;;;1.25;;
78799;SDS011;68148;55.328;86.106;2024-01-16T06:10:02;5.30;;;3.80;;
78799;SDS011;68148;55.328;86.106;2024-01-16T06:12:28;6.38;;;2.33;;
78799;SDS011;68148;55.328;86.106;2024-01-16T06:14:54;0.75;;;0.75;;
78799;SDS011;68148;55.328;86.106;2024-01-16T06:17:20;1.83;;;0.65;;
78799;SDS011;68148;55.328;86.106;2024-01-16T06:20:06;5.20;;;1.77;;
78799;SDS011;68148;55.328;86.106;2024-01-16T06:22:33;1.98;;;1.08;;
78799;SDS011;68148;55.328;86.106;2024-01-16T06:24:58;4.07;;;1.13;;
78799;SDS011;68148;55.328;86.106;2024-01-16T06:27:25;0.17;;;0.17;;
78799;SDS011;68148;55.328;86.106;2024-01-16T06:29:51;0.63;;;0.63;;
78799;SDS011;68148;55.328;86.106;2024-01-16T06:32:20;0.20;;;0.20;;
78799;SDS011;68148;55.328;86.106;2024-01-16T06:34:46;0.32;;;0.32;;
78799;SDS011;68148;55.328;86.106;2024-01-16T06:37:11;3.45;;;3.20;;
78799;SDS011;68148;55.328;86.106;2024-01-16T06:42:43;0.20;;;0.20;;
78799;SDS011;68148;55.328;86.106;2024-01-16T06:45:16;0.75;;;0.75;;
78799;SDS011;68148;55.328;86.106;2024-01-16T06:47:42;1.48;;;0.93;;
78799;SDS011;68148;55.328;86.106;2024-01-16T06:50:20;0.25;;;0.22;;
78799;SDS011;68148;55.328;86.106;2024-01-16T06:53:04;1.40;;;0.77;;
78799;SDS011;68148;55.328;86.106;2024-01-16T06:55:33;3.28;;;1.45;;
78799;SDS011;68148;55.328;86.106;2024-01-16T06:58:01;0.85;;;0.55;;
78799;SDS011;68148;55.328;86.106;2024-01-16T07:00:28;2.85;;;2.65;;
78799;SDS011;68148;55.328;86.106;2024-01-16T07:02:53;6.97;;;2.30;;
78799;SDS011;68148;55.328;86.106;2024-01-16T07:05:22;1.08;;;1.00;;
78799;SDS011;68148;55.328;86.106;2024-01-16T07:07:48;3.30;;;3.00;;
78799;SDS011;68148;55.328;86.106;2024-01-16T07:10:16;2.05;;;0.22;;
78799;SDS011;68148;55.328;86.106;2024-01-16T07:12:44;1.45;;;0.65;;
78799;SDS011;68148;55.328;86.106;2024-01-16T07:15:10;2.08;;;1.08;;
78799;SDS011;68148;55.328;86.106;2024-01-16T07:17:38;0.52;;;0.52;;
78799;SDS011;68148;55.328;86.106;2024-01-16T07:20:04;3.35;;;2.45;;
78799;SDS011;68148;55.328;86.106;2024-01-16T07:22:56;0.20;;;0.20;;
78799;SDS011;68148;55.328;86.106;2024-01-16T07:25:23;1.27;;;0.90;;
78799;SDS011;68148;55.328;86.106;2024-01-16T07:27:51;6.50;;;3.35;;
78799;SDS011;68148;55.328;86.106;2024-01-16T07:30:17;3.65;;;1.58;;
78799;SDS011;68148;55.328;86.106;2024-01-16T07:32:43;3.20;;;1.65;;
78799;SDS011;68148;55.328;86.106;2024-01-16T07:35:13;3.08;;;1.52;;
78799;SDS011;68148;55.328;86.106;2024-01-16T07:37:42;0.38;;;0.32;;
78799;SDS011;68148;55.328;86.106;2024-01-16T07:40:07;0.32;;;0.32;;
78799;SDS011;68148;55.328;86.106;2024-01-16T07:42:34;26.17;;;6.43;;
78799;SDS011;68148;55.328;86.106;2024-01-16T07:45:00;0.75;;;0.75;;
78799;SDS011;68148;55.328;86.106;2024-01-16T07:47:30;2.03;;;1.20;;
78799;SDS011;68148;55.328;86.106;2024-01-16T07:49:56;3.35;;;3.00;;
78799;SDS011;68148;55.328;86.106;2024-01-16T07:52:23;3.20;;;2.95;;
78799;SDS011;68148;55.328;86.106;2024-01-16T07:55:18;2.65;;;1.92;;
78799;SDS011;68148;55.328;86.106;2024-01-16T07:57:46;2.38;;;1.05;;
78799;SDS011;68148;55.328;86.106;2024-01-16T08:00:16;1.27;;;1.17;;
78799;SDS011;68148;55.328;86.106;2024-01-16T08:02:45;6.70;;;3.22;;
78799;SDS011;68148;55.328;86.106;2024-01-16T08:05:12;0.20;;;0.20;;
78799;SDS011;68148;55.328;86.106;2024-01-16T08:07:42;5.00;;;4.53;;
78799;SDS011;68148;55.328;86.106;2024-01-16T08:10:11;0.20;;;0.20;;
78799;SDS011;68148;55.328;86.106;2024-01-16T08:12:38;0.60;;;0.60;;
78799;SDS011;68148;55.328;86.106;2024-01-16T08:15:06;0.20;;;0.20;;
78799;SDS011;68148;55.328;86.106;2024-01-16T08:17:36;4.97;;;3.30;;
78799;SDS011;68148;55.328;86.106;2024-01-16T08:20:02;2.10;;;1.45;;
78799;SDS011;68148;55.328;86.106;2024-01-16T08:22:57;1.65;;;0.70;;
78799;SDS011;68148;55.328;86.106;2024-01-16T08:25:23;1.63;;;1.52;;
78799;SDS011;68148;55.328;86.106;2024-01-16T08:27:51;4.40;;;2.13;;
78799;SDS011;68148;55.328;86.106;2024-01-16T08:30:23;4.13;;;0.43;;
78799;SDS011;68148;55.328;86.106;2024-01-16T08:32:49;2.13;;;1.95;;
78799;SDS011;68148;55.328;86.106;2024-01-16T08:35:16;1.73;;;1.60;;
78799;SDS011;68148;55.328;86.106;2024-01-16T08:37:42;2.80;;;1.33;;
78799;SDS011;68148;55.328;86.106;2024-01-16T08:40:08;1.95;;;1.77;;
78799;SDS011;68148;55.328;86.106;2024-01-16T08:42:35;2.08;;;1.65;;
78799;SDS011;68148;55.328;86.106;2024-01-16T08:45:02;1.55;;;1.23;;
78799;SDS011;68148;55.328;86.106;2024-01-16T08:47:27;3.63;;;1.63;;
78799;SDS011;68148;55.328;86.106;2024-01-16T08:49:54;2.58;;;2.10;;
78799;SDS011;68148;55.328;86.106;2024-01-16T08:52:20;0.22;;;0.22;;
78799;SDS011;68148;55.328;86.106;2024-01-16T08:54:49;1.27;;;1.08;;
78799;SDS011;68148;55.328;86.106;2024-01-16T08:57:15;11.23;;;2.72;;
78799;SDS011;68148;55.328;86.106;2024-01-16T08:59:44;4.90;;;2.13;;
78799;SDS011;68148;55.328;86.106;2024-01-16T09:02:09;0.30;;;0.30;;
78799;SDS011;68148;55.328;86.106;2024-01-16T09:04:36;2.88;;;2.10;;
78799;SDS011;68148;55.328;86.106;2024-01-16T09:07:04;2.00;;;1.17;;
78799;SDS011;68148;55.328;86.106;2024-01-16T09:09:31;0.32;;;0.25;;
78799;SDS011;68148;55.328;86.106;2024-01-16T09:11:58;3.22;;;3.03;;
78799;SDS011;68148;55.328;86.106;2024-01-16T09:14:24;5.40;;;1.88;;
78799;SDS011;68148;55.328;86.106;2024-01-16T09:16:50;0.95;;;0.93;;
78799;SDS011;68148;55.328;86.106;2024-01-16T09:19:16;1.85;;;1.40;;
78799;SDS011;68148;55.328;86.106;2024-01-16T09:21:42;7.88;;;4.53;;
78799;SDS011;68148;55.328;86.106;2024-01-16T09:24:08;9.43;;;4.85;;
78799;SDS011;68148;55.328;86.106;2024-01-16T09:26:36;2.67;;;2.03;;
78799;SDS011;68148;55.328;86.106;2024-01-16T09:29:07;1.58;;;0.82;;
78799;SDS011;68148;55.328;86.106;2024-01-16T09:31:35;5.25;;;2.15;;
78799;SDS011;68148;55.328;86.106;2024-01-16T09:34:06;2.05;;;1.20;;
78799;SDS011;68148;55.328;86.106;2024-01-16T09:36:33;7.45;;;4.07;;
78799;SDS011;68148;55.328;86.106;2024-01-16T09:38:59;0.30;;;0.30;;
78799;SDS011;68148;55.328;86.106;2024-01-16T09:41:46;2.60;;;1.75;;
78799;SDS011;68148;55.328;86.106;2024-01-16T09:44:13;0.52;;;0.52;;
78799;SDS011;68148;55.328;86.106;2024-01-16T09:46:40;2.25;;;1.55;;
78799;SDS011;68148;55.328;86.106;2024-01-16T09:49:11;2.47;;;1.70;;
78799;SDS011;68148;55.328;86.106;2024-01-16T09:51:42;1.55;;;1.50;;
78799;SDS011;68148;55.328;86.106;2024-01-16T09:54:08;2.13;;;2.00;;
78799;SDS011;68148;55.328;86.106;2024-01-16T09:56:43;0.20;;;0.20;;
78799;SDS011;68148;55.328;86.106;2024-01-16T09:59:12;1.15;;;1.10;;
78799;SDS011;68148;55.328;86.106;2024-01-16T10:01:42;5.72;;;1.10;;
78799;SDS011;68148;55.328;86.106;2024-01-16T10:04:08;2.28;;;1.45;;
78799;SDS011;68148;55.328;86.106;2024-01-16T10:09:19;5.63;;;3.65;;
78799;SDS011;68148;55.328;86.106;2024-01-16T10:11:46;1.42;;;1.33;;
78799;SDS011;68148;55.328;86.106;2024-01-16T10:14:12;1.88;;;1.77;;
78799;SDS011;68148;55.328;86.106;2024-01-16T10:17:00;2.22;;;2.13;;
78799;SDS011;68148;55.328;86.106;2024-01-16T10:19:29;3.42;;;1.65;;
78799;SDS011;68148;55.328;86.106;2024-01-16T10:22:04;16.33;;;3.80;;
78799;SDS011;68148;55.328;86.106;2024-01-16T10:24:35;6.43;;;2.05;;
78799;SDS011;68148;55.328;86.106;2024-01-16T10:27:07;3.17;;;2.72;;
78799;SDS011;68148;55.328;86.106;2024-01-16T10:30:05;11.50;;;1.98;;
78799;SDS011;68148;55.328;86.106;2024-01-16T10:32:42;6.68;;;6.10;;
78799;SDS011;68148;55.328;86.106;2024-01-16T10:35:28;3.50;;;1.30;;
78799;SDS011;68148;55.328;86.106;2024-01-16T10:37:55;14.77;;;3.05;;
78799;SDS011;68148;55.328;86.106;2024-01-16T10:40:24;2.40;;;1.98;;
78799;SDS011;68148;55.328;86.106;2024-01-16T10:43:01;2.78;;;2.55;;
78799;SDS011;68148;55.328;86.106;2024-01-16T10:45:48;2.38;;;2.28;;
78799;SDS011;68148;55.328;86.106;2024-01-16T10:48:14;2.97;;;2.35;;
78799;SDS011;68148;55.328;86.106;2024-01-16T10:50:42;10.27;;;5.35;;
78799;SDS011;68148;55.328;86.106;2024-01-16T10:53:10;5.90;;;4.72;;
78799;SDS011;68148;55.328;86.106;2024-01-16T10:55:49;4.30;;;1.85;;
78799;SDS011;68148;55.328;86.106;2024-01-16T10:58:21;6.55;;;2.25;;
78799;SDS011;68148;55.328;86.106;2024-01-16T11:00:51;3.05;;;2.17;;
78799;SDS011;68148;55.328;86.106;2024-01-16T11:03:23;1.33;;;0.75;;
78799;SDS011;68148;55.328;86.106;2024-01-16T11:05:52;3.40;;;2.38;;
78799;SDS011;68148;55.328;86.106;2024-01-16T11:08:23;8.52;;;3.45;;
78799;SDS011;68148;55.328;86.106;2024-01-16T11:10:50;1.42;;;1.33;;
78799;SDS011;68148;55.328;86.106;2024-01-16T11:13:17;2.33;;;1.17;;
78799;SDS011;68148;55.328;86.106;2024-01-16T11:15:46;0.28;;;0.28;;
78799;SDS011;68148;55.328;86.106;2024-01-16T11:18:14;1.85;;;0.85;;
78799;SDS011;68148;55.328;86.106;2024-01-16T11:20:41;5.28;;;2.55;;
78799;SDS011;68148;55.328;86.106;2024-01-16T11:23:10;2.72;;;2.22;;
78799;SDS011;68148;55.328;86.106;2024-01-16T11:25:40;2.30;;;2.10;;
78799;SDS011;68148;55.328;86.106;2024-01-16T11:28:14;3.42;;;0.50;;
78799;SDS011;68148;55.328;86.106;2024-01-16T11:30:40;4.40;;;3.08;;
78799;SDS011;68148;55.328;86.106;2024-01-16T11:33:41;9.90;;;4.70;;
78799;SDS011;68148;55.328;86.106;2024-01-16T11:35:56;7.50;;;2.40;;
78799;SDS011;68148;55.328;86.106;2024-01-16T11:38:23;3.30;;;1.98;;
78799;SDS011;68148;55.328;86.106;2024-01-16T11:40:51;4.47;;;2.10;;
78799;SDS011;68148;55.328;86.106;2024-01-16T11:46:02;6.22;;;2.47;;
78799;SDS011;68148;55.328;86.106;2024-01-16T11:48:30;1.70;;;1.60;;
78799;SDS011;68148;55.328;86.106;2024-01-16T11:50:58;3.10;;;0.47;;
78799;SDS011;68148;55.328;86.106;2024-01-16T12:04:19;21.02;;;7.13;;
78799;SDS011;68148;55.328;86.106;2024-01-16T12:07:01;5.10;;;4.65;;
78799;SDS011;68148;55.328;86.106;2024-01-16T12:09:28;14.52;;;9.00;;
78799;SDS011;68148;55.328;86.106;2024-01-16T12:11:56;8.90;;;7.28;;
78799;SDS011;68148;55.328;86.106;2024-01-16T12:14:23;28.35;;;9.88;;
78799;SDS011;68148;55.328;86.106;2024-01-16T12:16:50;20.45;;;10.60;;
78799;SDS011;68148;55.328;86.106;2024-01-16T12:19:17;18.45;;;11.52;;
78799;SDS011;68148;55.328;86.106;2024-01-16T12:21:45;31.70;;;15.40;;
78799;SDS011;68148;55.328;86.106;2024-01-16T12:24:21;53.10;;;33.47;;
78799;SDS011;68148;55.328;86.106;2024-01-16T12:26:48;33.90;;;20.35;;
78799;SDS011;68148;55.328;86.106;2024-01-16T12:29:17;48.25;;;30.25;;
78799;SDS011;68148;55.328;86.106;2024-01-16T12:31:43;34.20;;;20.05;;
78799;SDS011;68148;55.328;86.106;2024-01-16T12:34:09;72.07;;;23.73;;
78799;SDS011;68148;55.328;86.106;2024-01-16T12:36:57;47.00;;;30.48;;
78799;SDS011;68148;55.328;86.106;2024-01-16T12:39:30;45.67;;;27.73;;
78799;SDS011;68148;55.328;86.106;2024-01-16T12:42:15;60.80;;;26.38;;
78799;SDS011;68148;55.328;86.106;2024-01-16T12:44:41;38.20;;;28.73;;
78799;SDS011;68148;55.328;86.106;2024-01-16T12:47:07;76.45;;;39.00;;
78799;SDS011;68148;55.328;86.106;2024-01-16T12:49:33;73.18;;;35.03;;
78799;SDS011;68148;55.328;86.106;2024-01-16T12:52:19;34.03;;;16.35;;
78799;SDS011;68148;55.328;86.106;2024-01-16T12:54:46;55.55;;;38.88;;
78799;SDS011;68148;55.328;86.106;2024-01-16T12:57:16;76.97;;;41.28;;
78799;SDS011;68148;55.328;86.106;2024-01-16T12:59:44;65.72;;;40.78;;
78799;SDS011;68148;55.328;86.106;2024-01-16T13:02:18;30.13;;;21.27;;
78799;SDS011;68148;55.328;86.106;2024-01-16T13:05:00;30.20;;;23.67;;
78799;SDS011;68148;55.328;86.106;2024-01-16T13:07:27;67.68;;;37.95;;
78799;SDS011;68148;55.328;86.106;2024-01-16T13:10:14;23.38;;;15.65;;
78799;SDS011;68148;55.328;86.106;2024-01-16T13:12:41;44.30;;;24.48;;
78799;SDS011;68148;55.328;86.106;2024-01-16T13:15:07;22.20;;;17.13;;
78799;SDS011;68148;55.328;86.106;2024-01-16T13:17:35;51.42;;;11.55;;
78799;SDS011;68148;55.328;86.106;2024-01-16T13:20:06;26.67;;;9.25;;
78799;SDS011;68148;55.328;86.106;2024-01-16T13:22:36;31.17;;;15.50;;
78799;SDS011;68148;55.328;86.106;2024-01-16T13:25:25;32.83;;;8.43;;
78799;SDS011;68148;55.328;86.106;2024-01-16T13:27:51;20.92;;;12.88;;
78799;SDS011;68148;55.328;86.106;2024-01-16T13:30:17;4.65;;;4.28;;
78799;SDS011;68148;55.328;86.106;2024-01-16T13:32:43;21.65;;;8.90;;
78799;SDS011;68148;55.328;86.106;2024-01-16T13:35:09;34.92;;;16.75;;
78799;SDS011;68148;55.328;86.106;2024-01-16T13:37:36;9.63;;;7.95;;
78799;SDS011;68148;55.328;86.106;2024-01-16T13:40:05;6.05;;;5.57;;
78799;SDS011;68148;55.328;86.106;2024-01-16T13:42:31;5.13;;;3.05;;
78799;SDS011;68148;55.328;86.106;2024-01-16T13:44:59;8.85;;;4.30;;
78799;SDS011;68148;55.328;86.106;2024-01-16T13:47:46;42.83;;;16.17;;
78799;SDS011;68148;55.328;86.106;2024-01-16T13:50:15;7.00;;;6.50;;
78799;SDS011;68148;55.328;86.106;2024-01-16T13:52:43;44.17;;;13.88;;
78799;SDS011;68148;55.328;86.106;2024-01-16T13:55:09;8.43;;;6.15;;
78799;SDS011;68148;55.328;86.106;2024-01-16T13:57:36;2.08;;;1.90;;
78799;SDS011;68148;55.328;86.106;2024-01-16T14:00:08;5.95;;;5.00;;
78799;SDS011;68148;55.328;86.106;2024-01-16T14:02:36;22.98;;;11.93;;
78799;SDS011;68148;55.328;86.106;2024-01-16T14:05:09;5.15;;;4.68;;
78799;SDS011;68148;55.328;86.106;2024-01-16T14:07:39;8.68;;;7.57;;
78799;SDS011;68148;55.328;86.106;2024-01-16T14:10:10;8.05;;;1.75;;
78799;SDS011;68148;55.328;86.106;2024-01-16T14:12:40;10.88;;;6.68;;
78799;SDS011;68148;55.328;86.106;2024-01-16T14:15:17;13.63;;;6.85;;
78799;SDS011;68148;55.328;86.106;2024-01-16T14:17:45;4.40;;;3.35;;
78799;SDS011;68148;55.328;86.106;2024-01-16T14:20:13;11.27;;;7.32;;
78799;SDS011;68148;55.328;86.106;2024-01-16T14:22:39;22.67;;;6.35;;
78799;SDS011;68148;55.328;86.106;2024-01-16T14:25:07;3.30;;;2.70;;
78799;SDS011;68148;55.328;86.106;2024-01-16T14:27:33;13.57;;;8.70;;
78799;SDS011;68148;55.328;86.106;2024-01-16T14:29:59;13.43;;;7.40;;
78799;SDS011;68148;55.328;86.106;2024-01-16T14:32:26;39.58;;;13.00;;
78799;SDS011;68148;55.328;86.106;2024-01-16T14:34:52;9.30;;;8.63;;
78799;SDS011;68148;55.328;86.106;2024-01-16T14:37:36;11.57;;;5.45;;
78799;SDS011;68148;55.328;86.106;2024-01-16T14:40:05;2.50;;;2.33;;
78799;SDS011;68148;55.328;86.106;2024-01-16T14:42:32;31.75;;;5.72;;
78799;SDS011;68148;55.328;86.106;2024-01-16T14:44:58;5.32;;;3.20;;
78799;SDS011;68148;55.328;86.106;2024-01-16T14:47:25;12.77;;;5.88;;
78799;SDS011;68148;55.328;86.106;2024-01-16T14:49:51;5.20;;;4.75;;
78799;SDS011;68148;55.328;86.106;2024-01-16T14:52:17;4.28;;;2.13;;
78799;SDS011;68148;55.328;86.106;2024-01-16T14:54:45;12.15;;;7.13;;
78799;SDS011;68148;55.328;86.106;2024-01-16T14:57:13;26.73;;;12.13;;
78799;SDS011;68148;55.328;86.106;2024-01-16T14:59:39;23.20;;;15.43;;
78799;SDS011;68148;55.328;86.106;2024-01-16T15:02:04;14.55;;;10.45;;
78799;SDS011;68148;55.328;86.106;2024-01-16T15:04:31;18.33;;;9.73;;
78799;SDS011;68148;55.328;86.106;2024-01-16T15:07:01;13.30;;;7.10;;
78799;SDS011;68148;55.328;86.106;2024-01-16T15:09:32;22.00;;;16.63;;
78799;SDS011;68148;55.328;86.106;2024-01-16T15:11:59;16.13;;;14.43;;